createdAt,value
2018-11-23T00:02:19.109Z,25.27
2018-11-23T00:04:49.478Z,26.48
2018-11-23T00:07:18.981Z,25.82
2018-11-23T00:10:08.049Z,26.17
2018-11-23T00:12:38.041Z,25.85
2018-11-23T00:15:26.590Z,22.90
2018-11-23T00:17:56.794Z,23.05
2018-11-23T00:20:45.319Z,22.75
2018-11-23T00:23:14.844Z,22.32
2018-11-23T00:25:44.384Z,22.15
2018-11-23T00:28:32.864Z,23.38
2018-11-23T00:31:02.966Z,22.73
2018-11-23T00:33:32.881Z,23.00
2018-11-23T00:36:02.701Z,23.85
2018-11-23T00:38:32.855Z,23.80
2018-11-23T00:41:02.822Z,23.45
2018-11-23T00:43:51.581Z,24.35
2018-11-23T00:46:40.375Z,22.25
2018-11-23T00:49:10.288Z,23.87
2018-11-23T00:51:39.922Z,22.67
2018-11-23T00:54:09.437Z,24.37
2018-11-23T00:56:38.942Z,22.77
2018-11-23T00:59:09.468Z,23.07
2018-11-23T01:01:57.626Z,22.50
2018-11-23T01:04:28.065Z,24.20
2018-11-23T01:07:16.570Z,24.90
2018-11-23T01:10:05.272Z,26.60
2018-11-23T01:12:54.693Z,24.32
2018-11-23T01:15:24.226Z,25.80
2018-11-23T01:18:13.024Z,25.17
2018-11-23T01:20:42.539Z,23.77
2018-11-23T01:23:31.131Z,23.55
2018-11-23T01:26:00.669Z,24.77
2018-11-23T01:28:41.696Z,23.10
2018-11-23T01:31:11.210Z,23.85
2018-11-23T01:33:40.774Z,23.83
2018-11-23T01:36:10.243Z,23.77
2018-11-23T01:38:59.030Z,23.70
2018-11-23T01:41:29.257Z,24.85
2018-11-23T01:43:59.596Z,23.57
2018-11-23T01:46:29.451Z,24.90
2018-11-23T01:48:59.063Z,22.75
2018-11-23T01:51:47.788Z,24.50
2018-11-23T01:54:17.339Z,22.00
2018-11-23T01:57:06.094Z,23.47
2018-11-23T01:59:35.698Z,23.02
2018-11-23T02:02:05.843Z,21.87
2018-11-23T02:04:35.668Z,22.10
2018-11-23T02:07:05.635Z,21.20
2018-11-23T02:09:35.785Z,21.77
2018-11-23T02:12:05.261Z,22.50
2018-11-23T02:14:34.830Z,25.23
2018-11-23T02:17:23.330Z,23.73
2018-11-23T02:19:54.828Z,20.40
2018-11-23T02:22:25.577Z,21.48
2018-11-23T02:24:55.510Z,21.12
2018-11-23T02:27:25.460Z,23.73
2018-11-23T02:29:55.265Z,25.65
2018-11-23T02:32:44.424Z,25.20
2018-11-23T02:35:33.252Z,27.25
2018-11-23T02:38:22.091Z,24.85
2018-11-23T02:41:10.882Z,21.80
2018-11-23T02:43:41.023Z,21.65
2018-11-23T02:46:10.895Z,23.12
2018-11-23T02:48:59.415Z,22.05
2018-11-23T02:51:29.713Z,21.12
2018-11-23T02:53:59.251Z,23.90
2018-11-23T02:56:48.113Z,22.05
2018-11-23T02:59:18.057Z,21.55
2018-11-23T03:01:47.573Z,20.85
2018-11-23T03:04:36.344Z,20.65
2018-11-23T03:07:06.426Z,20.77
2018-11-23T03:09:36.933Z,21.27
2018-11-23T03:12:25.678Z,22.30
2018-11-23T03:14:55.726Z,22.20
2018-11-23T03:17:45.073Z,20.80
2018-11-23T03:20:33.649Z,21.27
2018-11-23T03:23:03.430Z,23.02
2018-11-23T03:25:33.742Z,22.52
2018-11-23T03:28:03.244Z,22.52
2018-11-23T03:30:32.771Z,21.85
2018-11-23T03:33:02.626Z,22.60
2018-11-23T03:35:51.140Z,22.52
2018-11-23T03:38:39.382Z,21.95
2018-11-23T03:41:09.533Z,22.87
2018-11-23T03:43:39.128Z,23.83
2018-11-23T03:46:09.178Z,22.60
2018-11-23T03:48:38.650Z,23.20
2018-11-23T03:51:27.197Z,23.85
2018-11-23T03:54:16.306Z,22.55
2018-11-23T03:56:46.153Z,22.50
2018-11-23T03:59:34.490Z,22.20
2018-11-23T04:02:04.325Z,21.42
2018-11-23T04:07:28.369Z,23.45
2018-11-23T04:10:17.629Z,25.12
2018-11-23T04:13:06.733Z,21.33
2018-11-23T04:15:36.230Z,21.68
2018-11-23T04:18:05.764Z,22.00
2018-11-23T04:20:35.630Z,21.52
2018-11-23T04:23:05.119Z,20.50
2018-11-23T04:25:34.922Z,20.02
2018-11-23T04:28:23.468Z,19.95
2018-11-23T04:30:53.266Z,21.42
2018-11-23T04:33:23.061Z,21.75
2018-11-23T04:36:11.590Z,20.00
2018-11-23T04:38:41.704Z,21.07
2018-11-23T04:41:11.182Z,21.68
2018-11-23T04:43:59.989Z,20.35
2018-11-23T04:46:29.549Z,20.57
2018-11-23T04:49:18.052Z,19.90
2018-11-23T04:51:47.847Z,21.30
2018-11-23T04:54:17.344Z,20.60
2018-11-23T04:57:05.794Z,21.77
2018-11-23T04:59:35.988Z,22.05
2018-11-23T05:02:24.762Z,20.65
2018-11-23T05:05:13.818Z,21.00
2018-11-23T05:07:44.706Z,21.30
2018-11-23T05:10:15.713Z,23.60
2018-11-23T05:12:45.605Z,21.23
2018-11-23T05:15:34.107Z,20.02
2018-11-23T05:18:22.847Z,23.10
2018-11-23T05:20:52.683Z,25.72
2018-11-23T05:23:22.230Z,27.02
2018-11-23T05:25:51.755Z,24.15
2018-11-23T05:28:21.561Z,22.30
2018-11-23T05:30:51.352Z,26.77
2018-11-23T05:33:20.883Z,25.82
2018-11-23T05:36:10.624Z,24.65
2018-11-23T05:38:59.097Z,23.62
2018-11-23T05:41:48.069Z,24.18
2018-11-23T05:44:18.077Z,22.98
2018-11-23T05:47:07.050Z,22.32
2018-11-23T05:49:55.610Z,20.48
2018-11-23T05:52:44.777Z,20.97
2018-11-23T05:55:14.340Z,21.70
2018-11-23T05:57:44.470Z,20.62
2018-11-23T06:00:33.541Z,19.52
2018-11-23T06:03:22.005Z,19.40
2018-11-23T06:06:10.865Z,18.95
2018-11-23T06:08:40.799Z,21.55
2018-11-23T06:11:29.679Z,22.80
2018-11-23T06:14:18.526Z,20.62
2018-11-23T06:17:07.035Z,21.68
2018-11-23T06:19:56.093Z,22.58
2018-11-23T06:22:45.073Z,21.75
2018-11-23T06:25:52.495Z,20.52
2018-11-23T06:28:41.011Z,20.10
2018-11-23T06:31:10.577Z,20.20
2018-11-23T06:33:58.831Z,20.68
2018-11-23T06:36:47.918Z,19.52
2018-11-23T06:39:36.519Z,21.23
2018-11-23T06:42:06.460Z,20.00
2018-11-23T06:44:36.019Z,20.45
2018-11-23T06:47:05.573Z,20.15
2018-11-23T06:49:35.794Z,20.75
2018-11-23T06:52:05.302Z,18.60
2018-11-23T06:54:34.795Z,21.62
2018-11-23T06:57:23.559Z,20.50
2018-11-23T06:59:53.288Z,19.32
2018-11-23T07:02:23.221Z,20.55
2018-11-23T07:04:52.787Z,20.48
2018-11-23T07:07:22.346Z,22.30
2018-11-23T07:09:52.081Z,21.70
2018-11-23T07:12:41.111Z,19.20
2018-11-23T07:15:12.278Z,19.50
2018-11-23T07:18:00.802Z,19.62
2018-11-23T07:20:49.580Z,20.65
2018-11-23T07:23:38.069Z,20.30
2018-11-23T07:26:26.543Z,20.27
2018-11-23T07:28:56.369Z,20.68
2018-11-23T07:31:25.870Z,21.07
2018-11-23T07:33:55.715Z,21.00
2018-11-23T07:36:44.175Z,21.20
2018-11-23T07:39:51.609Z,20.72
2018-11-23T07:42:40.087Z,22.13
2018-11-23T07:45:28.745Z,20.85
2018-11-23T07:47:58.882Z,20.52
2018-11-23T07:50:47.302Z,19.95
2018-11-23T07:53:35.802Z,22.32
2018-11-23T07:56:05.383Z,20.20
2018-11-23T07:58:35.251Z,22.17
2018-11-23T08:01:05.196Z,20.75
2018-11-23T08:03:34.740Z,21.80
2018-11-23T08:06:04.531Z,22.07
2018-11-23T08:08:34.284Z,21.33
2018-11-23T08:11:07.515Z,21.60
2018-11-23T08:13:55.947Z,21.97
2018-11-23T08:16:44.378Z,20.15
2018-11-23T08:19:14.277Z,21.60
2018-11-23T08:22:02.814Z,21.97
2018-11-23T08:24:32.354Z,22.52
2018-11-23T08:27:01.815Z,21.55
2018-11-23T08:29:31.668Z,23.15
2018-11-23T08:32:01.265Z,23.30
2018-11-23T08:34:31.203Z,21.48
2018-11-23T08:37:20.356Z,20.48
2018-11-23T08:39:50.421Z,17.50
2018-11-23T08:42:20.914Z,19.80
2018-11-23T08:45:10.452Z,18.67
2018-11-23T08:47:41.684Z,19.75
2018-11-23T08:50:30.600Z,19.90
2018-11-23T08:53:00.507Z,19.15
2018-11-23T08:55:30.312Z,20.27
2018-11-23T08:58:00.409Z,20.30
2018-11-23T09:00:48.879Z,17.95
2018-11-23T09:03:18.674Z,19.62
2018-11-23T09:05:48.221Z,21.95
2018-11-23T09:08:18.787Z,20.25
2018-11-23T09:11:07.563Z,21.73
2018-11-23T09:13:37.774Z,22.00
2018-11-23T09:16:08.177Z,20.88
2018-11-23T09:18:56.651Z,20.45
2018-11-23T09:21:26.603Z,22.00
2018-11-23T09:23:56.393Z,20.85
2018-11-23T09:26:26.243Z,21.45
2018-11-23T09:29:14.734Z,19.77
2018-11-23T09:31:44.549Z,21.20
2018-11-23T09:34:14.088Z,21.33
2018-11-23T09:36:43.582Z,23.35
2018-11-23T09:39:13.129Z,23.20
2018-11-23T09:42:01.319Z,21.37
2018-11-23T09:44:31.227Z,22.60
2018-11-23T09:47:19.394Z,22.82
2018-11-23T09:50:07.963Z,22.98
2018-11-23T09:52:58.066Z,22.00
2018-11-23T09:55:29.096Z,21.07
2018-11-23T09:57:58.602Z,22.60
2018-11-23T10:00:47.383Z,20.72
2018-11-23T10:03:16.955Z,20.82
2018-11-23T10:05:46.504Z,22.05
2018-11-23T10:08:16.012Z,21.30
2018-11-23T10:10:45.523Z,21.80
2018-11-23T10:13:15.083Z,20.70
2018-11-23T10:16:03.649Z,21.40
2018-11-23T10:18:33.178Z,21.00
2018-11-23T10:21:21.357Z,22.37
2018-11-23T10:24:09.849Z,22.55
2018-11-23T10:26:39.491Z,21.77
2018-11-23T10:29:27.650Z,20.27
2018-11-23T10:32:16.178Z,22.48
2018-11-23T10:35:04.398Z,21.52
2018-11-23T10:37:54.323Z,21.23
2018-11-23T10:40:25.181Z,21.42
2018-11-23T10:42:54.717Z,21.75
2018-11-23T10:45:25.972Z,21.80
2018-11-23T10:47:56.640Z,20.77
2018-11-23T10:50:27.905Z,20.20
2018-11-23T10:52:57.406Z,18.92
2018-11-23T10:55:28.601Z,19.77
2018-11-23T10:57:58.466Z,18.80
2018-11-23T11:00:46.685Z,19.07
2018-11-23T11:03:34.884Z,27.80
2018-11-23T11:06:42.030Z,18.60
2018-11-23T11:09:11.942Z,18.17
2018-11-23T11:12:01.697Z,16.75
2018-11-23T11:14:31.812Z,17.48
2018-11-23T11:17:01.737Z,20.72
2018-11-23T11:19:50.143Z,23.98
2018-11-23T11:22:19.598Z,18.62
2018-11-23T11:24:49.482Z,21.70
2018-11-23T11:27:19.012Z,19.73
2018-11-23T11:29:48.577Z,19.27
2018-11-23T11:32:18.389Z,20.08
2018-11-23T11:34:48.284Z,22.25
2018-11-23T11:37:18.123Z,19.37
2018-11-23T11:39:47.638Z,17.35
2018-11-23T11:42:17.481Z,17.77
2018-11-23T11:45:06.871Z,17.82
2018-11-23T11:47:36.548Z,15.67
2018-11-23T11:50:08.233Z,16.17
2018-11-23T11:52:39.271Z,15.37
2018-11-23T11:55:10.879Z,15.47
2018-11-23T11:57:40.740Z,14.20
2018-11-23T12:00:12.993Z,14.20
2018-11-23T12:02:42.547Z,16.00
2018-11-23T12:05:12.995Z,14.63
2018-11-23T12:07:43.131Z,12.63
2018-11-23T12:10:15.549Z,13.80
2018-11-23T12:13:04.026Z,13.63
2018-11-23T12:15:34.332Z,13.60
2018-11-23T12:18:03.842Z,13.53
2018-11-23T12:20:52.291Z,13.67
2018-11-23T12:23:21.945Z,12.97
2018-11-23T12:26:10.489Z,13.40
2018-11-23T12:28:40.021Z,13.53
2018-11-23T12:31:10.117Z,13.20
2018-11-23T12:33:39.647Z,13.43
2018-11-23T12:36:09.185Z,12.93
2018-11-23T12:38:43.024Z,12.97
2018-11-23T12:41:08.547Z,12.43
2018-11-23T12:43:57.040Z,13.67
2018-11-23T12:46:26.814Z,11.20
2018-11-23T12:49:15.027Z,11.70
2018-11-23T12:52:03.497Z,12.53
2018-11-23T12:54:33.503Z,12.70
2018-11-23T12:57:22.595Z,12.17
2018-11-23T13:00:10.800Z,11.80
2018-11-23T13:02:40.958Z,11.67
2018-11-23T13:08:05.529Z,12.00
2018-11-23T13:10:35.753Z,12.37
2018-11-23T13:13:05.897Z,11.37
2018-11-23T13:15:54.676Z,10.17
2018-11-23T13:18:24.169Z,9.90
2018-11-23T13:20:53.741Z,9.90
2018-11-23T13:23:24.277Z,9.10
2018-11-23T13:25:53.803Z,7.93
2018-11-23T13:28:42.703Z,7.90
2018-11-23T13:31:31.159Z,7.90
2018-11-23T13:34:00.687Z,7.70
2018-11-23T13:36:30.552Z,7.30
2018-11-23T13:39:00.493Z,8.30
2018-11-23T13:41:30.011Z,7.03
2018-11-23T13:43:59.567Z,8.30
2018-11-23T13:46:29.095Z,7.80
2018-11-23T13:48:58.886Z,8.10
2018-11-23T13:51:48.495Z,7.97
2018-11-23T13:54:18.296Z,9.27
2018-11-23T13:56:48.312Z,7.53
2018-11-23T13:59:36.512Z,7.33
2018-11-23T14:02:25.588Z,8.05
2018-11-23T14:04:55.362Z,9.13
2018-11-23T14:07:25.901Z,8.93
2018-11-23T14:09:55.499Z,10.30
2018-11-23T14:12:44.325Z,10.50
2018-11-23T14:15:15.785Z,9.90
2018-11-23T14:18:04.022Z,10.18
2018-11-23T14:20:33.846Z,10.50
2018-11-23T14:23:22.327Z,11.03
2018-11-23T14:25:52.064Z,9.93
2018-11-23T14:28:22.569Z,9.97
2018-11-23T14:30:52.178Z,10.67
2018-11-23T14:33:22.097Z,9.53
2018-11-23T14:35:51.644Z,10.00
2018-11-23T14:38:21.517Z,9.58
2018-11-23T14:40:51.499Z,8.50
2018-11-23T14:43:21.061Z,10.38
2018-11-23T14:45:50.971Z,11.57
2018-11-23T14:48:39.471Z,10.13
2018-11-23T14:51:09.043Z,10.40
2018-11-23T14:53:57.505Z,9.30
2018-11-23T14:56:46.006Z,10.15
2018-11-23T14:59:15.915Z,9.38
2018-11-23T15:02:04.436Z,10.63
2018-11-23T15:04:34.358Z,10.70
2018-11-23T15:07:04.219Z,9.65
2018-11-23T15:09:33.764Z,11.45
2018-11-23T15:12:03.277Z,10.88
2018-11-23T15:14:51.769Z,10.90
2018-11-23T15:17:21.679Z,10.48
2018-11-23T15:19:51.263Z,11.00
2018-11-23T15:22:20.869Z,10.70
2018-11-23T15:24:50.469Z,10.82
2018-11-23T15:27:39.377Z,10.28
2018-11-23T15:30:32.275Z,12.37
2018-11-23T15:33:02.359Z,11.55
2018-11-23T15:35:33.091Z,12.80
2018-11-23T15:38:06.048Z,11.48
2018-11-23T15:40:33.190Z,12.65
2018-11-23T15:43:21.483Z,12.53
2018-11-23T15:45:51.586Z,13.30
2018-11-23T15:48:40.399Z,13.25
2018-11-23T15:51:10.956Z,11.60
2018-11-23T15:53:59.360Z,12.98
2018-11-23T15:56:47.879Z,12.55
2018-11-23T15:59:17.666Z,10.80
2018-11-23T16:01:47.223Z,12.63
2018-11-23T16:04:39.530Z,11.78
2018-11-23T16:07:05.316Z,19.57
2018-11-23T16:09:53.799Z,15.13
2018-11-23T16:12:23.703Z,12.60
2018-11-23T16:14:53.204Z,12.00
2018-11-23T16:17:22.843Z,10.58
2018-11-23T16:19:52.752Z,9.50
2018-11-23T16:25:20.107Z,8.58
2018-11-23T16:27:49.907Z,8.00
2018-11-23T16:30:22.270Z,8.35
2018-11-23T16:32:51.746Z,8.43
2018-11-23T16:35:21.554Z,8.53
2018-11-23T16:37:50.344Z,8.30
2018-11-23T16:40:21.141Z,8.80
2018-11-23T16:42:49.746Z,8.40
2018-11-23T16:45:21.601Z,8.93
2018-11-23T16:47:53.717Z,9.13
2018-11-23T16:50:22.380Z,8.88
2018-11-23T16:52:51.237Z,9.00
2018-11-23T16:55:20.805Z,9.63
2018-11-23T16:57:51.739Z,9.43
2018-11-23T17:08:52.112Z,8.60
2018-11-23T17:11:20.582Z,9.58
2018-11-23T17:13:49.410Z,8.78
2018-11-23T17:16:17.866Z,9.53
2018-11-23T17:18:46.228Z,9.83
2018-11-23T17:21:14.567Z,8.28
2018-11-23T17:23:42.855Z,10.10
2018-11-23T17:26:11.342Z,10.28
2018-11-23T17:28:39.751Z,9.58
2018-11-23T17:31:08.228Z,9.65
2018-11-23T17:33:36.783Z,10.30
2018-11-23T17:36:05.639Z,8.53
2018-11-23T17:38:37.729Z,9.30
2018-11-23T17:41:02.594Z,10.20
2018-11-23T17:43:31.129Z,10.70
2018-11-23T17:45:59.416Z,10.00
2018-11-23T17:48:28.436Z,9.70
2018-11-23T17:50:58.617Z,10.30
2018-11-23T17:53:36.046Z,9.78
2018-11-23T17:56:04.401Z,10.20
2018-11-23T17:58:32.767Z,9.95
2018-11-23T18:03:52.305Z,10.03
2018-11-23T18:06:20.791Z,9.65
2018-11-23T18:08:49.681Z,9.90
2018-11-23T18:11:18.064Z,10.15
2018-11-23T18:13:46.923Z,10.30
2018-11-23T18:16:15.634Z,9.45
2018-11-23T18:18:44.226Z,10.38
2018-11-23T18:21:12.725Z,9.90
2018-11-23T18:23:41.332Z,10.72
2018-11-23T18:26:09.791Z,9.98
2018-11-23T18:28:38.134Z,9.33
2018-11-23T18:31:07.396Z,9.35
2018-11-23T18:33:36.248Z,9.18
2018-11-23T18:36:06.494Z,11.22
2018-11-23T18:38:34.917Z,11.80
2018-11-23T18:41:03.438Z,12.65
2018-11-23T18:43:31.828Z,12.80
2018-11-23T18:46:00.302Z,10.50
2018-11-23T18:48:28.655Z,10.50
2018-11-23T18:50:56.985Z,10.80
2018-11-23T18:53:25.327Z,12.40
2018-11-23T18:55:53.702Z,12.70
2018-11-23T18:58:22.141Z,12.23
2018-11-23T19:00:50.474Z,13.48
2018-11-23T19:03:18.832Z,13.18
2018-11-23T19:05:47.163Z,14.20
2018-11-23T19:08:15.583Z,11.60
2018-11-23T19:10:44.012Z,13.60
2018-11-23T19:13:12.580Z,12.40
2018-11-23T19:15:41.930Z,11.33
2018-11-23T19:18:10.254Z,12.88
2018-11-23T19:20:38.574Z,14.03
2018-11-23T19:23:07.322Z,14.65
2018-11-23T19:25:35.681Z,15.72
2018-11-23T19:28:04.156Z,13.65
2018-11-23T19:30:32.489Z,13.48
2018-11-23T19:33:01.664Z,12.35
2018-11-23T19:35:29.519Z,16.20
2018-11-23T19:37:57.939Z,16.60
2018-11-23T19:40:26.366Z,15.10
2018-11-23T19:42:55.278Z,14.65
2018-11-23T19:45:24.187Z,16.20
2018-11-23T19:47:52.681Z,15.68
2018-11-23T19:50:21.339Z,15.15
2018-11-23T19:52:49.751Z,14.75
2018-11-23T19:55:18.558Z,15.68
2018-11-23T19:57:47.129Z,15.90
2018-11-23T20:00:19.772Z,15.43
2018-11-23T20:02:48.314Z,15.60
2018-11-23T20:05:16.692Z,16.05
2018-11-23T20:07:45.944Z,15.60
2018-11-23T20:10:15.648Z,15.63
2018-11-23T20:12:45.084Z,15.23
2018-11-23T20:16:45.519Z,15.90
2018-11-23T20:19:14.044Z,16.10
2018-11-23T20:21:42.389Z,14.70
2018-11-23T20:24:10.682Z,16.07
2018-11-23T20:26:39.311Z,15.05
2018-11-23T20:29:07.780Z,16.30
2018-11-23T20:31:36.209Z,15.55
2018-11-23T20:34:04.498Z,15.85
2018-11-23T20:36:32.835Z,17.23
2018-11-23T20:39:01.100Z,17.77
2018-11-23T20:41:29.857Z,19.98
2018-11-23T20:43:58.416Z,17.65
2018-11-23T20:46:27.249Z,19.82
2018-11-23T20:48:55.771Z,18.73
2018-11-23T20:51:24.202Z,18.52
2018-11-23T20:53:52.770Z,16.42
2018-11-23T20:56:21.102Z,19.00
2018-11-23T20:58:49.640Z,18.12
2018-11-23T21:01:17.996Z,17.62
2018-11-23T21:03:46.496Z,17.98
2018-11-23T21:13:09.799Z,18.27
2018-11-23T21:15:38.169Z,17.67
2018-11-23T21:18:07.216Z,18.23
2018-11-23T21:20:35.636Z,18.10
2018-11-23T21:23:04.194Z,20.43
2018-11-23T21:25:32.612Z,18.37
2018-11-23T21:28:01.150Z,20.12
2018-11-23T21:30:29.506Z,18.55
2018-11-23T21:34:01.208Z,16.55
2018-11-23T21:36:29.515Z,16.32
2018-11-23T21:38:57.992Z,16.80
2018-11-23T21:41:29.773Z,15.00
2018-11-23T21:43:54.626Z,15.03
2018-11-23T21:46:23.159Z,16.20
2018-11-23T21:48:51.662Z,15.10
2018-11-23T21:51:20.053Z,14.47
2018-11-23T21:53:48.576Z,14.90
2018-11-23T21:56:17.053Z,16.30
2018-11-23T21:58:45.390Z,15.35
2018-11-23T22:01:13.736Z,15.10
2018-11-23T22:03:42.013Z,15.30
2018-11-23T22:06:10.378Z,15.18
2018-11-23T22:08:38.693Z,15.85
2018-11-23T22:11:07.324Z,15.03
2018-11-23T22:13:35.970Z,14.18
2018-11-23T22:16:04.543Z,14.25
2018-11-23T22:18:33.004Z,15.50
2018-11-23T22:21:01.479Z,15.80
2018-11-23T22:23:30.090Z,13.75
2018-11-23T22:25:59.159Z,13.88
2018-11-23T22:28:27.615Z,14.90
2018-11-23T22:30:56.021Z,16.15
2018-11-23T22:33:24.339Z,14.78
2018-11-23T22:35:52.670Z,14.40
2018-11-23T22:38:21.102Z,14.43
2018-11-23T22:40:49.512Z,15.32
2018-11-23T22:43:17.973Z,17.00
2018-11-23T22:45:46.394Z,16.12
2018-11-23T22:48:15.000Z,14.47
2018-11-23T22:50:43.327Z,14.10
2018-11-23T22:53:11.762Z,14.23
2018-11-23T22:55:40.135Z,14.73
2018-11-23T22:58:08.454Z,15.40
2018-11-23T23:00:41.208Z,15.00
2018-11-23T23:03:10.320Z,16.52
2018-11-23T23:05:39.831Z,16.50
2018-11-23T23:08:07.024Z,15.93
2018-11-23T23:10:35.410Z,16.07
2018-11-23T23:13:03.869Z,16.15
2018-11-23T23:15:32.328Z,16.57
2018-11-23T23:18:00.694Z,14.40
2018-11-23T23:20:29.055Z,15.45
2018-11-23T23:22:58.924Z,15.15
2018-11-23T23:25:28.272Z,15.32
2018-11-23T23:27:56.958Z,16.30
2018-11-23T23:30:26.113Z,16.42
2018-11-23T23:32:54.551Z,15.28
2018-11-23T23:35:23.089Z,14.75
2018-11-23T23:37:51.451Z,13.90
2018-11-23T23:40:20.192Z,14.87
2018-11-23T23:42:49.409Z,14.38
2018-11-23T23:45:19.025Z,14.80
2018-11-23T23:47:49.633Z,13.75
2018-11-23T23:50:19.691Z,14.18
2018-11-23T23:52:49.006Z,15.35
2018-11-23T23:55:17.704Z,15.23
2018-11-23T23:57:47.618Z,14.10
